createdAt,value
2023-04-07T00:00:28.136Z,99.90
2023-04-07T00:02:56.021Z,99.90
2023-04-07T00:05:23.583Z,99.90
2023-04-07T00:07:56.411Z,99.90
2023-04-07T00:10:25.522Z,99.90
2023-04-07T00:12:53.024Z,99.90
2023-04-07T00:15:20.564Z,99.90
2023-04-07T00:17:47.835Z,99.90
2023-04-07T00:20:15.143Z,99.90
2023-04-07T00:22:42.900Z,99.90
2023-04-07T00:25:10.922Z,99.90
2023-04-07T00:27:38.193Z,99.90
2023-04-07T00:30:06.308Z,99.90
2023-04-07T00:32:35.274Z,99.90
2023-04-07T00:35:03.464Z,99.90
2023-04-07T00:37:30.693Z,99.90
2023-04-07T00:39:59.505Z,99.90
2023-04-07T00:42:26.773Z,99.90
2023-04-07T00:44:54.741Z,99.90
2023-04-07T00:47:22.154Z,99.90
2023-04-07T00:49:49.315Z,99.90
2023-04-07T00:52:16.795Z,99.90
2023-04-07T00:54:47.196Z,99.90
2023-04-07T00:57:15.052Z,99.90
2023-04-07T00:59:42.291Z,99.90
2023-04-07T01:02:17.998Z,99.90
2023-04-07T01:04:53.915Z,99.90
2023-04-07T01:07:28.120Z,99.90
2023-04-07T01:10:10.703Z,99.90
2023-04-07T01:12:50.610Z,99.90
2023-04-07T01:15:22.871Z,99.90
2023-04-07T01:18:01.595Z,99.90
2023-04-07T01:20:32.948Z,99.90
2023-04-07T01:23:07.251Z,99.90
2023-04-07T01:25:41.038Z,99.90
2023-04-07T01:28:14.145Z,99.90
2023-04-07T01:30:43.832Z,99.90
2023-04-07T01:33:12.689Z,99.90
2023-04-07T01:35:41.652Z,99.90
2023-04-07T01:38:09.498Z,99.90
2023-04-07T01:40:39.630Z,99.90
2023-04-07T01:43:07.986Z,99.90
2023-04-07T01:45:36.575Z,99.90
2023-04-07T01:48:07.091Z,99.90
2023-04-07T01:50:35.368Z,99.90
2023-04-07T01:53:05.020Z,99.90
2023-04-07T01:55:32.918Z,99.90
2023-04-07T01:58:06.483Z,99.90
2023-04-07T02:00:35.572Z,99.90
2023-04-07T02:03:12.222Z,99.90
2023-04-07T02:05:40.592Z,99.90
2023-04-07T02:08:11.937Z,99.90
2023-04-07T02:10:40.374Z,99.90
2023-04-07T02:13:10.198Z,99.90
2023-04-07T02:15:38.392Z,99.90
2023-04-07T02:18:07.960Z,99.90
2023-04-07T02:20:37.006Z,99.90
2023-04-07T02:23:04.345Z,99.90
2023-04-07T02:25:32.817Z,99.90
2023-04-07T02:28:01.540Z,99.90
2023-04-07T02:30:29.326Z,99.90
2023-04-07T02:32:57.074Z,99.90
2023-04-07T02:35:24.993Z,99.90
2023-04-07T02:37:52.294Z,99.90
2023-04-07T02:40:19.662Z,99.90
2023-04-07T02:42:47.200Z,99.90
2023-04-07T02:45:14.716Z,99.90
2023-04-07T02:47:41.967Z,99.90
2023-04-07T02:50:09.977Z,99.90
2023-04-07T02:52:37.120Z,99.90
2023-04-07T02:55:11.393Z,99.90
2023-04-07T02:57:38.969Z,99.90
2023-04-07T03:00:11.218Z,99.90
2023-04-07T03:02:53.854Z,99.90
2023-04-07T03:05:21.420Z,99.90
2023-04-07T03:07:48.848Z,99.90
2023-04-07T03:10:16.328Z,99.90
2023-04-07T03:12:44.023Z,99.90
2023-04-07T03:15:11.854Z,99.90
2023-04-07T03:17:43.526Z,99.90
2023-04-07T03:20:11.125Z,99.90
2023-04-07T03:22:38.806Z,99.90
2023-04-07T03:25:11.249Z,99.90
2023-04-07T03:27:38.520Z,99.90
2023-04-07T03:30:09.019Z,99.90
2023-04-07T03:32:36.289Z,99.90
2023-04-07T03:35:03.505Z,99.90
2023-04-07T03:37:30.807Z,99.90
2023-04-07T03:39:59.545Z,99.90
2023-04-07T03:42:31.053Z,99.90
2023-04-07T03:45:02.721Z,99.90
2023-04-07T03:47:31.896Z,99.90
2023-04-07T03:50:02.520Z,99.90
2023-04-07T03:52:34.040Z,99.90
2023-04-07T03:55:10.690Z,99.90
2023-04-07T03:57:38.163Z,99.90
2023-04-07T04:00:06.482Z,99.90
2023-04-07T04:02:43.681Z,99.90
2023-04-07T04:05:16.258Z,99.90
2023-04-07T04:07:43.819Z,99.90
2023-04-07T04:10:11.645Z,99.90
2023-04-07T04:12:44.242Z,99.90
2023-04-07T04:15:14.087Z,99.90
2023-04-07T04:17:41.705Z,99.90
2023-04-07T04:20:10.096Z,99.90
2023-04-07T04:22:42.594Z,99.90
2023-04-07T04:25:10.317Z,99.90
2023-04-07T04:27:37.747Z,99.90
2023-04-07T04:30:12.506Z,99.90
2023-04-07T04:32:47.877Z,99.90
2023-04-07T04:35:17.401Z,99.90
2023-04-07T04:37:56.022Z,99.90
2023-04-07T04:40:23.554Z,99.90
2023-04-07T04:42:51.720Z,99.90
2023-04-07T04:45:21.848Z,99.90
2023-04-07T04:47:50.933Z,99.90
2023-04-07T04:50:18.250Z,99.90
2023-04-07T04:52:47.100Z,99.90
2023-04-07T04:55:20.840Z,99.90
2023-04-07T04:57:48.230Z,99.90
2023-04-07T05:00:21.700Z,99.90
2023-04-07T05:02:53.470Z,99.90
2023-04-07T05:05:21.017Z,99.90
2023-04-07T05:07:51.036Z,99.90
2023-04-07T05:10:18.421Z,99.90
2023-04-07T05:12:49.760Z,99.90
2023-04-07T05:15:17.079Z,99.90
2023-04-07T05:17:50.635Z,99.90
2023-04-07T05:20:23.332Z,99.90
2023-04-07T05:22:51.195Z,99.90
2023-04-07T05:25:21.532Z,99.90
2023-04-07T05:27:52.384Z,99.90
2023-04-07T05:30:19.750Z,99.90
2023-04-07T05:32:46.857Z,99.90
2023-04-07T05:35:24.011Z,99.90
2023-04-07T05:37:55.633Z,99.90
2023-04-07T05:40:23.528Z,99.90
2023-04-07T05:42:51.373Z,99.90
2023-04-07T05:45:18.760Z,99.90
2023-04-07T05:47:50.672Z,99.90
2023-04-07T05:50:23.922Z,99.90
2023-04-07T05:52:51.434Z,99.90
2023-04-07T05:55:23.391Z,99.90
2023-04-07T05:57:52.182Z,99.90
2023-04-07T06:00:22.556Z,99.90
2023-04-07T06:03:01.990Z,99.90
2023-04-07T06:05:32.379Z,99.90
2023-04-07T06:07:59.597Z,99.90
2023-04-07T06:10:28.347Z,99.90
2023-04-07T06:12:56.199Z,99.90
2023-04-07T06:15:23.854Z,99.90
2023-04-07T06:17:51.400Z,99.90
2023-04-07T06:20:21.667Z,99.90
2023-04-07T06:22:49.027Z,99.90
2023-04-07T06:25:16.392Z,99.90
2023-04-07T06:27:43.546Z,99.90
2023-04-07T06:30:11.288Z,99.90
2023-04-07T06:32:38.903Z,99.90
2023-04-07T06:35:06.726Z,99.90
2023-04-07T06:37:34.060Z,99.90
2023-04-07T06:40:01.368Z,99.90
2023-04-07T06:42:28.578Z,99.90
2023-04-07T06:45:07.528Z,99.90
2023-04-07T06:47:34.778Z,99.90
2023-04-07T06:50:02.001Z,99.90
2023-04-07T06:52:29.290Z,99.90
2023-04-07T06:54:56.385Z,99.90
2023-04-07T06:57:23.575Z,99.90
2023-04-07T06:59:51.280Z,99.90
2023-04-07T07:02:18.631Z,99.90
2023-04-07T07:04:45.879Z,99.90
2023-04-07T07:07:13.221Z,99.90
2023-04-07T07:09:40.581Z,99.90
2023-04-07T07:12:07.846Z,99.90
2023-04-07T07:14:35.078Z,99.90
2023-04-07T07:17:02.267Z,99.90
2023-04-07T07:19:29.507Z,99.90
2023-04-07T07:21:56.835Z,99.90
2023-04-07T07:24:24.010Z,99.90
2023-04-07T07:26:51.296Z,99.90
2023-04-07T07:29:18.536Z,99.90
2023-04-07T07:31:45.897Z,99.90
2023-04-07T07:34:13.126Z,99.90
2023-04-07T07:36:40.537Z,99.90
2023-04-07T07:39:07.980Z,99.90
2023-04-07T07:41:35.831Z,99.90
2023-04-07T07:44:03.107Z,99.90
2023-04-07T07:46:30.486Z,99.90
2023-04-07T07:48:57.722Z,99.90
2023-04-07T07:51:25.029Z,99.90
2023-04-07T07:53:52.736Z,99.90
2023-04-07T07:56:19.916Z,99.90
2023-04-07T07:58:47.485Z,99.90
2023-04-07T08:01:14.747Z,99.90
2023-04-07T08:03:42.362Z,99.90
2023-04-07T08:06:09.945Z,99.90
2023-04-07T08:08:37.069Z,99.90
2023-04-07T08:11:04.273Z,99.90
2023-04-07T08:13:31.535Z,99.90
2023-04-07T08:15:58.771Z,99.90
2023-04-07T08:18:25.943Z,99.90
2023-04-07T08:20:53.811Z,99.90
2023-04-07T08:23:21.143Z,99.90
2023-04-07T08:25:48.419Z,99.90
2023-04-07T08:28:16.164Z,99.90
2023-04-07T08:30:43.425Z,99.90
2023-04-07T08:33:10.766Z,99.90
2023-04-07T08:35:38.034Z,99.90
2023-04-07T08:38:06.020Z,99.90
2023-04-07T08:40:33.838Z,99.90
2023-04-07T08:43:04.084Z,99.90
2023-04-07T08:45:32.914Z,99.90
2023-04-07T08:48:08.607Z,99.90
2023-04-07T08:50:37.020Z,99.90
2023-04-07T08:53:09.263Z,99.90
2023-04-07T08:55:36.955Z,99.90
2023-04-07T08:58:04.908Z,99.90
2023-04-07T09:00:32.819Z,99.90
2023-04-07T09:03:01.539Z,99.90
2023-04-07T09:05:29.991Z,99.90
2023-04-07T09:07:57.172Z,99.90
2023-04-07T09:10:24.359Z,99.90
2023-04-07T09:12:51.492Z,99.90
2023-04-07T09:15:19.123Z,99.90
2023-04-07T09:17:47.076Z,99.90
2023-04-07T09:20:14.368Z,99.90
2023-04-07T09:22:43.831Z,99.90
2023-04-07T09:25:15.101Z,99.90
2023-04-07T09:27:54.148Z,99.90
2023-04-07T09:30:21.705Z,99.90
2023-04-07T09:32:49.102Z,99.90
2023-04-07T09:35:16.483Z,99.90
2023-04-07T09:37:43.797Z,99.90
2023-04-07T09:40:11.667Z,99.90
2023-04-07T09:42:42.312Z,99.90
2023-04-07T09:45:09.776Z,99.90
2023-04-07T09:47:38.261Z,99.90
2023-04-07T09:50:07.308Z,99.90
2023-04-07T09:52:37.827Z,99.90
2023-04-07T09:55:07.051Z,99.90
2023-04-07T09:57:39.543Z,99.90
2023-04-07T10:00:08.198Z,99.90
2023-04-07T10:02:40.537Z,99.90
2023-04-07T10:05:08.649Z,99.90
2023-04-07T10:07:36.003Z,99.90
2023-04-07T10:10:05.192Z,99.90
2023-04-07T10:12:34.917Z,99.90
2023-04-07T10:15:03.248Z,99.90
2023-04-07T10:17:32.594Z,99.90
2023-04-07T10:20:01.510Z,99.90
2023-04-07T10:22:30.460Z,99.30
2023-04-07T10:25:03.613Z,99.60
2023-04-07T10:27:35.552Z,98.90
2023-04-07T10:30:07.639Z,99.60
2023-04-07T10:32:48.450Z,97.90
2023-04-07T10:35:17.395Z,97.10
2023-04-07T10:37:47.652Z,98.30
2023-04-07T10:40:17.964Z,97.80
2023-04-07T10:42:47.964Z,97.70
2023-04-07T10:45:15.225Z,97.40
2023-04-07T10:47:46.157Z,96.20
2023-04-07T10:50:14.922Z,97.30
2023-04-07T10:52:42.481Z,97.20
2023-04-07T10:55:28.954Z,97.20
2023-04-07T10:57:59.365Z,96.30
2023-04-07T11:00:26.566Z,95.10
2023-04-07T11:02:54.029Z,95.00
2023-04-07T11:05:23.079Z,94.80
2023-04-07T11:07:54.581Z,93.80
2023-04-07T11:10:23.118Z,93.20
2023-04-07T11:12:53.295Z,93.50
2023-04-07T11:15:22.542Z,90.70
2023-04-07T11:17:53.182Z,91.30
2023-04-07T11:20:20.466Z,92.20
2023-04-07T11:23:00.448Z,90.70
2023-04-07T11:25:28.920Z,90.70
2023-04-07T11:27:56.369Z,90.90
2023-04-07T11:30:23.920Z,90.00
2023-04-07T11:32:51.823Z,91.00
2023-04-07T11:35:19.842Z,90.10
2023-04-07T11:37:47.620Z,90.00
2023-04-07T11:40:34.725Z,88.90
2023-04-07T11:43:02.885Z,90.40
2023-04-07T11:45:30.260Z,90.60
2023-04-07T11:47:57.652Z,91.40
2023-04-07T11:50:28.278Z,92.40
2023-04-07T11:52:55.522Z,92.80
2023-04-07T11:55:24.626Z,92.00
2023-04-07T11:57:52.230Z,94.00
2023-04-07T12:00:20.498Z,93.90
2023-04-07T12:02:47.921Z,94.50
2023-04-07T12:05:15.632Z,95.20
2023-04-07T12:07:54.139Z,95.00
2023-04-07T12:10:23.841Z,95.70
2023-04-07T12:12:51.661Z,95.20
2023-04-07T12:15:19.041Z,95.70
2023-04-07T12:17:48.239Z,95.40
2023-04-07T12:20:16.820Z,96.60
2023-04-07T12:22:44.036Z,95.60
2023-04-07T12:25:11.579Z,95.50
2023-04-07T12:27:42.690Z,94.50
2023-04-07T12:30:13.207Z,94.40
2023-04-07T12:32:40.734Z,93.40
2023-04-07T12:35:08.295Z,92.90
2023-04-07T12:37:36.059Z,93.00
2023-04-07T12:40:03.479Z,93.30
2023-04-07T12:42:30.874Z,92.40
2023-04-07T12:44:58.270Z,90.40
2023-04-07T12:47:25.469Z,90.80
2023-04-07T12:49:52.793Z,90.30
2023-04-07T12:52:20.070Z,87.20
2023-04-07T12:54:47.275Z,88.70
2023-04-07T12:57:14.350Z,90.20
2023-04-07T12:59:41.754Z,89.20
2023-04-07T13:02:10.199Z,89.70
2023-04-07T13:04:40.911Z,89.10
2023-04-07T13:07:09.885Z,87.20
2023-04-07T13:09:37.068Z,87.90
2023-04-07T13:12:04.304Z,86.10
2023-04-07T13:14:31.596Z,85.10
2023-04-07T13:16:58.884Z,86.80
2023-04-07T13:19:26.152Z,87.70
2023-04-07T13:21:53.503Z,89.20
2023-04-07T13:24:22.050Z,86.00
2023-04-07T13:26:49.371Z,87.10
2023-04-07T13:29:17.129Z,89.30
2023-04-07T13:31:46.890Z,89.90
2023-04-07T13:34:14.532Z,87.60
2023-04-07T13:36:42.328Z,86.60
2023-04-07T13:39:09.529Z,87.60
2023-04-07T13:41:36.787Z,86.40
2023-04-07T13:44:04.040Z,86.20
2023-04-07T13:46:31.402Z,85.90
2023-04-07T13:48:58.759Z,84.90
2023-04-07T13:51:26.203Z,83.30
2023-04-07T13:53:53.549Z,87.20
2023-04-07T13:56:22.340Z,83.80
2023-04-07T13:58:49.572Z,84.00
2023-04-07T14:01:17.681Z,85.70
2023-04-07T14:03:45.388Z,88.20
2023-04-07T14:06:12.818Z,87.50
2023-04-07T14:08:40.029Z,85.70
2023-04-07T14:11:07.319Z,88.60
2023-04-07T14:13:34.669Z,86.70
2023-04-07T14:16:01.950Z,88.10
2023-04-07T14:18:29.180Z,86.90
2023-04-07T14:20:56.698Z,88.20
2023-04-07T14:23:34.272Z,89.10
2023-04-07T14:26:04.609Z,90.50
2023-04-07T14:28:31.855Z,90.30
2023-04-07T14:30:59.297Z,89.80
2023-04-07T14:33:26.753Z,90.30
2023-04-07T14:35:54.032Z,86.50
2023-04-07T14:38:24.456Z,85.10
2023-04-07T14:40:53.163Z,87.80
2023-04-07T14:43:20.346Z,87.80
2023-04-07T14:45:47.621Z,88.40
2023-04-07T14:48:14.976Z,90.50
2023-04-07T14:50:42.181Z,90.70
2023-04-07T14:53:09.309Z,89.70
2023-04-07T14:55:37.229Z,88.70
2023-04-07T14:58:04.339Z,86.50
2023-04-07T15:00:31.570Z,86.00
2023-04-07T15:02:58.943Z,87.40
2023-04-07T15:05:28.101Z,86.60
2023-04-07T15:07:55.379Z,87.00
2023-04-07T15:10:22.810Z,87.70
2023-04-07T15:12:50.543Z,86.30
2023-04-07T15:15:17.909Z,86.10
2023-04-07T15:17:45.585Z,85.90
2023-04-07T15:20:13.500Z,85.10
2023-04-07T15:22:40.880Z,82.40
2023-04-07T15:25:08.903Z,83.30
2023-04-07T15:27:36.114Z,85.20
2023-04-07T15:30:03.970Z,84.20
2023-04-07T15:32:32.094Z,85.30
2023-04-07T15:34:59.474Z,84.60
2023-04-07T15:37:26.872Z,84.40
2023-04-07T15:39:54.263Z,82.10
2023-04-07T15:42:21.409Z,82.20
2023-04-07T15:44:48.640Z,80.00
2023-04-07T15:47:15.985Z,80.90
2023-04-07T15:49:43.202Z,81.20
2023-04-07T15:52:12.140Z,81.80
2023-04-07T15:54:39.464Z,83.20
2023-04-07T15:57:06.613Z,83.10
2023-04-07T15:59:36.077Z,83.20
2023-04-07T16:02:03.687Z,79.20
2023-04-07T16:04:31.155Z,82.40
2023-04-07T16:06:58.380Z,82.70
2023-04-07T16:09:26.297Z,82.40
2023-04-07T16:11:53.446Z,80.90
2023-04-07T16:14:20.878Z,81.80
2023-04-07T16:16:48.109Z,81.70
2023-04-07T16:19:15.456Z,81.10
2023-04-07T16:21:42.637Z,80.40
2023-04-07T16:24:09.931Z,80.60
2023-04-07T16:26:37.128Z,81.80
2023-04-07T16:29:04.404Z,83.30
2023-04-07T16:31:31.722Z,83.20
2023-04-07T16:33:59.018Z,82.90
2023-04-07T16:36:26.681Z,82.30
2023-04-07T16:38:54.036Z,82.30
2023-04-07T16:41:21.911Z,79.20
2023-04-07T16:43:49.211Z,79.30
2023-04-07T16:46:16.659Z,78.60
2023-04-07T16:48:43.960Z,79.10
2023-04-07T16:51:15.782Z,77.20
2023-04-07T16:53:43.152Z,78.50
2023-04-07T16:56:13.284Z,79.20
2023-04-07T16:58:40.503Z,80.80
2023-04-07T17:01:07.771Z,81.60
2023-04-07T17:03:36.161Z,82.50
2023-04-07T17:06:05.678Z,80.00
2023-04-07T17:08:33.754Z,79.60
2023-04-07T17:11:01.099Z,81.20
2023-04-07T17:13:28.449Z,81.30
2023-04-07T17:15:55.737Z,82.40
2023-04-07T17:18:23.007Z,81.70
2023-04-07T17:20:50.249Z,82.20
2023-04-07T17:23:18.067Z,83.20
2023-04-07T17:25:45.216Z,83.70
2023-04-07T17:28:12.418Z,82.70
2023-04-07T17:30:39.646Z,83.20
2023-04-07T17:33:08.336Z,83.60
2023-04-07T17:35:35.794Z,84.50
2023-04-07T17:38:03.435Z,86.00
2023-04-07T17:40:31.886Z,86.50
2023-04-07T17:43:00.235Z,87.20
2023-04-07T17:45:27.566Z,88.70
2023-04-07T17:47:55.625Z,89.30
2023-04-07T17:50:22.905Z,90.00
2023-04-07T17:52:51.589Z,89.30
2023-04-07T17:55:19.066Z,88.50
2023-04-07T17:57:46.726Z,89.30
2023-04-07T18:00:14.227Z,89.40
2023-04-07T18:02:42.386Z,89.60
2023-04-07T18:05:10.676Z,89.90
2023-04-07T18:07:38.898Z,90.40
2023-04-07T18:10:06.615Z,90.50
2023-04-07T18:12:33.905Z,90.40
2023-04-07T18:15:01.218Z,91.20
2023-04-07T18:17:28.477Z,90.60
2023-04-07T18:19:56.565Z,90.80
2023-04-07T18:22:23.892Z,91.00
2023-04-07T18:24:51.674Z,91.10
2023-04-07T18:27:19.390Z,91.40
2023-04-07T18:29:46.730Z,91.90
2023-04-07T18:32:13.990Z,92.10
2023-04-07T18:34:41.314Z,92.20
2023-04-07T18:37:08.666Z,92.40
2023-04-07T18:39:36.081Z,92.20
2023-04-07T18:42:03.320Z,92.80
2023-04-07T18:44:30.566Z,92.90
2023-04-07T18:46:57.929Z,93.00
2023-04-07T18:49:27.180Z,93.00
2023-04-07T18:51:56.249Z,93.30
2023-04-07T18:54:24.388Z,93.70
2023-04-07T18:56:51.613Z,93.90
2023-04-07T18:59:18.887Z,94.00
2023-04-07T19:01:46.245Z,94.40
2023-04-07T19:04:15.137Z,94.60
2023-04-07T19:06:42.549Z,95.30
2023-04-07T19:09:10.294Z,95.70
2023-04-07T19:11:37.566Z,95.50
2023-04-07T19:14:06.146Z,96.20
2023-04-07T19:16:35.104Z,96.70
2023-04-07T19:19:02.807Z,97.10
2023-04-07T19:21:30.073Z,97.40
2023-04-07T19:23:59.651Z,97.60
2023-04-07T19:26:29.356Z,98.10
2023-04-07T19:28:57.495Z,97.90
2023-04-07T19:31:24.970Z,98.10
2023-04-07T19:33:52.347Z,98.70
2023-04-07T19:36:19.858Z,99.00
2023-04-07T19:38:47.013Z,99.00
2023-04-07T19:41:14.295Z,99.60
2023-04-07T19:43:41.626Z,99.90
2023-04-07T19:46:09.212Z,99.80
2023-04-07T19:48:37.139Z,99.40
2023-04-07T19:51:06.104Z,99.30
2023-04-07T19:53:34.385Z,99.60
2023-04-07T19:56:04.541Z,99.60
2023-04-07T19:58:32.869Z,99.40
2023-04-07T20:01:00.375Z,99.60
2023-04-07T20:03:27.874Z,99.30
2023-04-07T20:05:55.459Z,99.40
2023-04-07T20:08:22.642Z,99.70
2023-04-07T20:10:52.787Z,99.90
2023-04-07T20:13:20.520Z,99.90
2023-04-07T20:15:49.166Z,99.90
2023-04-07T20:18:18.632Z,99.90
2023-04-07T20:20:46.599Z,99.90
2023-04-07T20:23:16.021Z,99.90
2023-04-07T20:25:43.342Z,99.90
2023-04-07T20:28:10.745Z,99.90
2023-04-07T20:30:37.988Z,99.90
2023-04-07T20:33:05.284Z,99.90
2023-04-07T20:35:32.615Z,99.90
2023-04-07T20:38:00.336Z,99.90
2023-04-07T20:40:27.788Z,99.90
2023-04-07T20:42:54.951Z,99.90
2023-04-07T20:45:23.217Z,99.90
2023-04-07T20:47:51.073Z,99.90
2023-04-07T20:50:18.412Z,99.90
2023-04-07T20:52:45.622Z,99.90
2023-04-07T20:55:13.000Z,99.90
2023-04-07T20:57:40.731Z,99.90
2023-04-07T21:00:10.291Z,99.90
2023-04-07T21:02:38.351Z,99.90
2023-04-07T21:05:06.112Z,99.90
2023-04-07T21:07:33.327Z,99.90
2023-04-07T21:10:01.059Z,99.90
2023-04-07T21:12:28.299Z,99.90
2023-04-07T21:14:55.531Z,99.90
2023-04-07T21:17:22.910Z,99.90
2023-04-07T21:19:50.212Z,99.90
2023-04-07T21:22:17.401Z,99.90
2023-04-07T21:24:44.678Z,99.90
2023-04-07T21:27:12.396Z,99.90
2023-04-07T21:29:42.467Z,99.90
2023-04-07T21:32:10.456Z,99.90
2023-04-07T21:34:37.822Z,99.90
2023-04-07T21:37:05.014Z,99.90
2023-04-07T21:39:33.623Z,99.90
2023-04-07T21:42:01.740Z,99.90
2023-04-07T21:44:29.095Z,99.90
2023-04-07T21:46:56.427Z,99.90
2023-04-07T21:49:25.576Z,99.90
2023-04-07T21:51:52.942Z,99.90
2023-04-07T21:54:20.233Z,99.90
2023-04-07T21:56:49.308Z,99.90
2023-04-07T21:59:17.938Z,99.90
2023-04-07T22:01:47.339Z,99.90
2023-04-07T22:04:15.064Z,99.90
2023-04-07T22:06:42.264Z,99.90
2023-04-07T22:09:10.209Z,99.90
2023-04-07T22:11:37.585Z,99.90
2023-04-07T22:14:04.957Z,99.90
2023-04-07T22:16:32.382Z,99.90
2023-04-07T22:18:59.835Z,99.90
2023-04-07T22:21:27.422Z,99.90
2023-04-07T22:23:54.715Z,99.90
2023-04-07T22:26:21.952Z,99.90
2023-04-07T22:28:49.517Z,99.90
2023-04-07T22:31:16.836Z,99.90
2023-04-07T22:33:44.211Z,99.90
2023-04-07T22:36:11.425Z,99.90
2023-04-07T22:38:38.745Z,99.90
2023-04-07T22:41:06.416Z,99.90
2023-04-07T22:43:34.033Z,99.90
2023-04-07T22:46:01.169Z,99.90
2023-04-07T22:48:29.060Z,99.90
2023-04-07T22:50:56.473Z,99.90
2023-04-07T22:53:23.844Z,99.90
2023-04-07T22:55:52.756Z,99.90
2023-04-07T22:58:20.669Z,99.90
2023-04-07T23:00:47.915Z,99.90
2023-04-07T23:03:15.419Z,99.90
2023-04-07T23:05:43.036Z,99.90
2023-04-07T23:08:10.674Z,99.90
2023-04-07T23:10:38.221Z,99.90
2023-04-07T23:13:05.693Z,99.90
2023-04-07T23:15:35.929Z,99.90
2023-04-07T23:18:03.884Z,99.90
2023-04-07T23:20:31.526Z,99.90
2023-04-07T23:22:58.941Z,99.90
2023-04-07T23:25:27.511Z,99.90
2023-04-07T23:27:54.820Z,99.90
2023-04-07T23:30:22.089Z,99.90
2023-04-07T23:32:49.558Z,99.90
2023-04-07T23:35:16.792Z,99.90
2023-04-07T23:37:44.092Z,99.90
2023-04-07T23:40:12.891Z,99.90
2023-04-07T23:42:40.592Z,99.90
2023-04-07T23:45:08.072Z,99.90
2023-04-07T23:47:35.433Z,99.90
2023-04-07T23:50:02.730Z,99.90
2023-04-07T23:52:29.970Z,99.90
2023-04-07T23:54:57.184Z,99.90
2023-04-07T23:57:24.529Z,99.90
2023-04-07T23:59:51.647Z,99.90
